Time;durP1;ratioP1;P1;durP2;ratioP2;P2;SDS_P1;SDS_P2;PMS_P1;PMS_P2;Temp;Humidity;BMP_temperature;BMP_pressure;BME280_temperature;BME280_humidity;BME280_pressure;Samples;Min_cycle;Max_cycle;Signal;HPM_P1;HPM_P2
2022/10/01 00:01:48;;;;;;;8.45;4.57;;;12.30;99.90;;;;;;5051226;28;20037;-69
2022/10/01 00:04:14;;;;;;;8.98;5.20;;;12.30;99.90;;;;;;5035001;28;20123;-69
2022/10/01 00:06:39;;;;;;;7.78;5.22;;;12.20;99.90;;;;;;5051751;28;20124;-69
2022/10/01 00:09:05;;;;;;;8.32;5.53;;;12.20;99.90;;;;;;5066970;28;20041;-68
2022/10/01 00:11:32;;;;;;;9.10;5.70;;;12.20;99.90;;;;;;5051050;28;20111;-68
2022/10/01 00:14:00;;;;;;;8.43;5.50;;;12.20;99.90;;;;;;5051963;28;20440;-69
2022/10/01 00:16:27;;;;;;;8.20;5.47;;;12.10;99.90;;;;;;5068224;28;20457;-68
2022/10/01 00:18:52;;;;;;;7.63;5.53;;;12.10;99.90;;;;;;5050873;28;20049;-68
2022/10/01 00:21:30;;;;;;;9.48;6.38;;;12.10;99.90;;;;;;5051800;28;20045;-68
2022/10/01 00:23:58;;;;;;;10.35;6.25;;;12.10;99.90;;;;;;5034915;28;20076;-69
2022/10/01 00:26:26;;;;;;;10.50;6.40;;;12.10;99.90;;;;;;5032791;28;20047;-69
2022/10/01 00:28:54;;;;;;;10.02;6.10;;;12.10;99.90;;;;;;5049869;28;20041;-68
2022/10/01 00:31:20;;;;;;;9.00;6.00;;;12.00;99.90;;;;;;5051486;28;20037;-69
2022/10/01 00:33:46;;;;;;;9.20;5.57;;;12.00;99.90;;;;;;5051448;28;20073;-68
2022/10/01 00:36:12;;;;;;;10.73;5.82;;;12.10;99.90;;;;;;5051453;28;20041;-70
2022/10/01 00:38:39;;;;;;;9.65;6.85;;;12.10;99.90;;;;;;5050500;28;20561;-69
2022/10/01 00:41:05;;;;;;;9.10;6.15;;;12.00;99.90;;;;;;5049714;28;20404;-70
2022/10/01 00:43:35;;;;;;;11.00;6.80;;;12.00;99.90;;;;;;5051307;28;20080;-69
2022/10/01 00:46:13;;;;;;;10.27;6.97;;;12.00;99.90;;;;;;5051410;28;20040;-69
2022/10/01 00:48:57;;;;;;;8.63;5.72;;;12.00;99.90;;;;;;5050633;28;20036;-69
2022/10/01 00:51:25;;;;;;;11.30;6.75;;;12.10;99.90;;;;;;5051114;28;20481;-69
2022/10/01 00:53:52;;;;;;;9.70;6.63;;;12.00;99.90;;;;;;5051559;28;20044;-69
2022/10/01 00:56:18;;;;;;;9.82;5.68;;;11.90;99.90;;;;;;5053557;28;20105;-69
2022/10/01 00:58:43;;;;;;;9.27;6.28;;;11.90;99.90;;;;;;5052244;28;20128;-69
2022/10/01 01:01:09;;;;;;;9.15;5.97;;;11.90;99.90;;;;;;5053807;28;20134;-69
2022/10/01 01:03:34;;;;;;;9.52;6.43;;;11.90;99.90;;;;;;5038244;28;20041;-69
2022/10/01 01:06:00;;;;;;;9.48;6.97;;;11.80;99.90;;;;;;5054753;28;20048;-69
2022/10/01 01:08:26;;;;;;;9.30;6.20;;;11.90;99.90;;;;;;5054031;28;20037;-69
2022/10/01 01:11:09;;;;;;;9.05;6.57;;;11.80;99.90;;;;;;5054973;28;20041;-69
2022/10/01 01:13:49;;;;;;;9.75;6.78;;;11.90;99.90;;;;;;5037389;28;20133;-69
2022/10/01 01:16:37;;;;;;;10.20;6.50;;;11.90;99.90;;;;;;5054660;28;20516;-69
2022/10/01 01:19:21;;;;;;;9.55;6.40;;;11.80;99.90;;;;;;5053540;28;20511;-69
2022/10/01 01:21:53;;;;;;;9.15;6.38;;;11.90;99.90;;;;;;5038063;28;20045;-69
2022/10/01 01:24:47;;;;;;;9.75;6.55;;;11.80;99.90;;;;;;5053774;28;20378;-70
2022/10/01 01:27:21;;;;;;;10.25;6.25;;;11.80;99.90;;;;;;5024304;28;20075;-68
2022/10/01 01:29:51;;;;;;;8.77;6.30;;;11.90;99.90;;;;;;5017788;28;20064;-68
2022/10/01 01:32:27;;;;;;;8.73;6.25;;;11.80;99.90;;;;;;5041057;28;20036;-69
2022/10/01 01:34:55;;;;;;;8.43;5.32;;;11.80;99.90;;;;;;5037780;28;20511;-70
2022/10/01 01:37:25;;;;;;;10.43;6.30;;;11.80;99.90;;;;;;5053528;28;20041;-70
2022/10/01 01:39:55;;;;;;;8.02;4.88;;;11.90;99.90;;;;;;5054345;28;20397;-70
2022/10/01 01:42:30;;;;;;;9.98;5.47;;;11.90;99.90;;;;;;5070218;28;20044;-70
2022/10/01 01:44:59;;;;;;;8.85;6.10;;;11.90;99.90;;;;;;5069784;28;20115;-70
2022/10/01 01:47:28;;;;;;;8.07;5.47;;;11.80;99.90;;;;;;5070635;28;20037;-69
2022/10/01 01:49:54;;;;;;;12.50;6.50;;;11.80;99.90;;;;;;5037313;28;20120;-69
2022/10/01 01:52:19;;;;;;;9.95;6.20;;;11.80;99.90;;;;;;5053105;28;20111;-69
2022/10/01 01:54:48;;;;;;;8.73;5.75;;;11.80;99.90;;;;;;5051766;28;20037;-69
2022/10/01 01:57:16;;;;;;;8.15;5.60;;;11.70;99.90;;;;;;5052984;28;20098;-69
2022/10/01 01:59:42;;;;;;;9.32;5.50;;;11.80;99.90;;;;;;5053674;28;20124;-70
2022/10/01 02:02:24;;;;;;;9.60;6.30;;;11.90;99.90;;;;;;5053278;28;20120;-69
2022/10/01 02:04:59;;;;;;;;;;;11.70;99.90;;;;;;5052859;28;20033;-69
2022/10/01 02:07:44;;;;;;;7.70;5.13;;;11.70;99.90;;;;;;5053123;28;20350;-69
2022/10/01 02:10:23;;;;;;;7.72;5.32;;;11.70;99.90;;;;;;5032334;28;20123;-69
2022/10/01 02:13:24;;;;;;;8.25;5.38;;;11.70;99.90;;;;;;5053785;28;20390;-69
2022/10/01 02:16:04;;;;;;;8.20;5.32;;;11.70;99.90;;;;;;5050584;28;20092;-69
2022/10/01 02:18:47;;;;;;;9.38;5.68;;;11.70;99.90;;;;;;5052284;28;20041;-69
2022/10/01 02:21:27;;;;;;;8.00;5.25;;;11.70;99.90;;;;;;5068786;28;20040;-69
2022/10/01 02:24:13;;;;;;;9.60;5.47;;;11.70;99.90;;;;;;5053266;28;20049;-69
2022/10/01 02:26:42;;;;;;;8.52;5.03;;;11.70;99.90;;;;;;5036237;28;20067;-69
2022/10/01 02:29:10;;;;;;;7.63;5.28;;;11.70;99.90;;;;;;5052367;28;20052;-68
2022/10/01 02:31:36;;;;;;;8.40;5.40;;;11.60;99.90;;;;;;5052608;28;20101;-68
2022/10/01 02:34:05;;;;;;;8.05;5.32;;;11.60;99.90;;;;;;5036246;28;20049;-69
2022/10/01 02:36:32;;;;;;;8.15;4.88;;;11.70;99.90;;;;;;5053109;28;20051;-68
2022/10/01 02:39:01;;;;;;;8.20;4.78;;;11.70;99.90;;;;;;5052140;28;20048;-68
2022/10/01 02:41:32;;;;;;;9.23;5.10;;;11.70;99.90;;;;;;5052831;28;20128;-69
2022/10/01 02:44:11;;;;;;;8.75;5.30;;;11.70;99.90;;;;;;5034796;28;20115;-68
2022/10/01 02:46:45;;;;;;;7.10;4.40;;;11.70;99.90;;;;;;5053227;28;20405;-69
2022/10/01 02:49:12;;;;;;;7.70;4.60;;;11.70;99.90;;;;;;5052828;28;20493;-68
2022/10/01 02:52:00;;;;;;;7.07;4.05;;;11.70;99.90;;;;;;5052714;28;20040;-68
2022/10/01 02:54:44;;;;;;;8.45;4.70;;;11.70;99.90;;;;;;5069508;28;20328;-69
2022/10/01 02:57:25;;;;;;;7.50;4.78;;;11.70;99.90;;;;;;5051224;28;20075;-69
2022/10/01 02:59:59;;;;;;;6.93;4.45;;;11.70;99.90;;;;;;5048768;28;20041;-69
2022/10/01 03:02:30;;;;;;;6.95;4.30;;;11.70;99.90;;;;;;5051506;28;20037;-69
2022/10/01 03:04:56;;;;;;;7.35;3.90;;;11.70;99.90;;;;;;5035180;28;20098;-69
2022/10/01 03:07:27;;;;;;;6.15;3.72;;;11.80;99.90;;;;;;5051095;28;20095;-69
2022/10/01 03:09:52;;;;;;;6.95;3.92;;;11.80;99.90;;;;;;5052495;28;20033;-69
2022/10/01 03:12:19;;;;;;;7.22;4.35;;;11.80;99.90;;;;;;5052386;28;20048;-69
2022/10/01 03:14:45;;;;;;;6.72;3.80;;;11.70;99.90;;;;;;5035555;28;20187;-69
2022/10/01 03:17:12;;;;;;;6.72;4.00;;;11.80;99.90;;;;;;5068420;28;20136;-69
2022/10/01 03:19:38;;;;;;;5.72;3.15;;;11.80;99.90;;;;;;5051253;28;20037;-69
2022/10/01 03:22:03;;;;;;;6.38;3.47;;;11.80;99.90;;;;;;5052186;28;20408;-69
2022/10/01 03:24:29;;;;;;;7.15;3.75;;;11.80;99.90;;;;;;5052225;28;20045;-69
2022/10/01 03:26:55;;;;;;;7.03;3.15;;;11.80;99.90;;;;;;5050264;28;20047;-69
2022/10/01 03:29:22;;;;;;;5.80;3.28;;;11.80;99.90;;;;;;5050730;28;20444;-69
2022/10/01 03:31:48;;;;;;;6.00;3.28;;;11.80;99.90;;;;;;5049994;28;20041;-69
2022/10/01 03:34:13;;;;;;;6.20;3.40;;;11.80;99.90;;;;;;5052073;28;20040;-69
2022/10/01 03:36:39;;;;;;;5.50;2.90;;;11.80;99.90;;;;;;5052009;28;20045;-69
2022/10/01 03:39:04;;;;;;;5.80;3.00;;;11.90;99.90;;;;;;5050647;28;20083;-68
2022/10/01 03:41:30;;;;;;;5.50;3.13;;;11.90;99.90;;;;;;5051319;28;20128;-68
2022/10/01 03:43:56;;;;;;;5.75;2.95;;;11.80;99.90;;;;;;5050957;28;20080;-69
2022/10/01 03:46:21;;;;;;;4.78;2.40;;;11.80;99.90;;;;;;5051946;28;20404;-69
2022/10/01 03:48:48;;;;;;;4.75;2.55;;;11.80;99.90;;;;;;5051173;28;20033;-69
2022/10/01 03:51:14;;;;;;;4.90;2.47;;;11.90;99.90;;;;;;5035219;28;20508;-69
2022/10/01 03:53:40;;;;;;;4.47;2.55;;;11.80;99.90;;;;;;5051195;28;20127;-69
2022/10/01 03:56:05;;;;;;;3.75;2.10;;;11.90;99.90;;;;;;5050191;28;20144;-69
2022/10/01 03:58:31;;;;;;;4.38;2.05;;;11.80;99.90;;;;;;5034430;28;20036;-70
2022/10/01 04:00:57;;;;;;;2.33;1.65;;;11.90;99.90;;;;;;5051983;28;20110;-69
2022/10/01 04:03:22;;;;;;;3.45;1.95;;;11.80;99.90;;;;;;5050946;28;20485;-69
2022/10/01 04:05:48;;;;;;;3.97;1.67;;;11.90;99.90;;;;;;5033366;28;20064;-69
2022/10/01 04:08:15;;;;;;;2.83;1.73;;;11.90;99.90;;;;;;5051748;28;20090;-68
2022/10/01 04:10:41;;;;;;;2.60;1.60;;;11.90;99.90;;;;;;5035038;28;20037;-69
2022/10/01 04:13:07;;;;;;;2.92;1.70;;;11.90;99.90;;;;;;5051011;28;20041;-69
2022/10/01 04:15:32;;;;;;;2.72;1.70;;;11.90;99.90;;;;;;5050156;28;20049;-68
2022/10/01 04:17:59;;;;;;;4.18;1.90;;;11.80;99.90;;;;;;5034178;28;20086;-69
2022/10/01 04:20:25;;;;;;;4.75;1.80;;;11.80;99.90;;;;;;5034238;28;20481;-69
2022/10/01 04:22:50;;;;;;;3.80;2.15;;;11.90;99.90;;;;;;5068152;28;20048;-69
2022/10/01 04:25:16;;;;;;;2.92;1.60;;;11.90;99.90;;;;;;5049711;28;20033;-69
2022/10/01 04:27:54;;;;;;;3.40;2.00;;;11.90;99.90;;;;;;5051712;28;20393;-69
2022/10/01 04:30:20;;;;;;;2.33;1.65;;;11.90;99.90;;;;;;5070041;28;20037;-69
2022/10/01 04:32:46;;;;;;;4.15;1.65;;;11.90;99.90;;;;;;5054630;28;20083;-68
2022/10/01 04:35:12;;;;;;;3.90;2.03;;;11.90;99.90;;;;;;5054884;28;20029;-69
2022/10/01 04:37:38;;;;;;;4.63;2.10;;;11.90;99.90;;;;;;5055421;28;20041;-69
2022/10/01 04:40:05;;;;;;;4.75;2.10;;;11.90;99.90;;;;;;5055294;28;20405;-69
2022/10/01 04:42:30;;;;;;;3.95;2.13;;;11.90;99.90;;;;;;5054510;28;20485;-68
2022/10/01 04:44:56;;;;;;;3.55;2.10;;;11.90;99.90;;;;;;5054199;28;20131;-69
2022/10/01 04:47:22;;;;;;;2.80;1.90;;;11.90;99.90;;;;;;5055405;28;20485;-69
2022/10/01 04:49:48;;;;;;;2.53;1.63;;;11.90;99.90;;;;;;5055384;28;20037;-69
2022/10/01 04:52:13;;;;;;;3.00;1.90;;;11.90;99.90;;;;;;5054283;28;20106;-69
2022/10/01 04:54:39;;;;;;;3.25;2.00;;;12.00;99.90;;;;;;5053997;28;20048;-69
2022/10/01 04:57:04;;;;;;;4.50;1.90;;;12.00;99.90;;;;;;5037774;28;20048;-69
2022/10/01 04:59:30;;;;;;;3.15;1.80;;;12.00;99.90;;;;;;5071617;28;20041;-69
2022/10/01 05:01:56;;;;;;;4.15;1.90;;;12.00;99.90;;;;;;5054450;28;20083;-69
2022/10/01 05:04:22;;;;;;;3.50;1.75;;;12.10;99.90;;;;;;5050834;28;20033;-69
2022/10/01 05:06:47;;;;;;;3.45;2.00;;;12.00;99.90;;;;;;5034802;28;20079;-69
2022/10/01 05:09:13;;;;;;;3.08;1.77;;;12.00;99.90;;;;;;5042744;28;20037;-69
2022/10/01 05:11:38;;;;;;;3.33;2.08;;;12.00;99.90;;;;;;5050137;28;20033;-69
2022/10/01 05:14:04;;;;;;;2.78;2.00;;;12.00;99.90;;;;;;5052386;28;20041;-68
2022/10/01 05:16:30;;;;;;;3.20;2.10;;;12.10;99.90;;;;;;5052929;28;20063;-68
2022/10/01 05:18:55;;;;;;;2.90;1.98;;;12.00;99.90;;;;;;5051820;28;20099;-68
2022/10/01 05:21:21;;;;;;;3.00;1.83;;;12.00;99.90;;;;;;5043357;28;20041;-69
2022/10/01 05:23:47;;;;;;;3.08;1.92;;;12.10;99.90;;;;;;5049138;28;20048;-69
2022/10/01 05:26:12;;;;;;;9.60;2.60;;;12.00;99.90;;;;;;5054031;28;20041;-69
2022/10/01 05:28:43;;;;;;;5.13;2.40;;;12.00;99.90;;;;;;5048489;28;20080;-68
2022/10/01 05:31:12;;;;;;;3.30;2.28;;;12.00;99.90;;;;;;5025342;28;20072;-68
2022/10/01 05:33:38;;;;;;;3.25;2.10;;;12.00;99.90;;;;;;5053459;28;20052;-68
2022/10/01 05:36:05;;;;;;;4.43;2.65;;;12.00;99.90;;;;;;5071205;28;20040;-68
2022/10/01 05:38:35;;;;;;;4.53;2.30;;;12.10;99.90;;;;;;5035524;28;20037;-68
2022/10/01 05:41:00;;;;;;;3.92;2.40;;;12.10;99.90;;;;;;5036990;28;20366;-68
2022/10/01 05:43:26;;;;;;;3.63;2.28;;;12.10;99.90;;;;;;5049707;28;20072;-68
2022/10/01 05:45:51;;;;;;;4.45;2.50;;;12.10;99.90;;;;;;5050856;28;20565;-68
2022/10/01 05:48:17;;;;;;;7.07;2.60;;;12.10;99.90;;;;;;5034512;28;20043;-68
2022/10/01 05:50:43;;;;;;;4.80;2.38;;;12.20;99.90;;;;;;5052972;28;20036;-68
2022/10/01 05:53:10;;;;;;;4.80;2.45;;;12.20;99.90;;;;;;5058342;28;20037;-68
2022/10/01 05:55:36;;;;;;;5.22;2.55;;;12.30;99.90;;;;;;5050859;28;20414;-68
2022/10/01 05:58:12;;;;;;;3.97;2.58;;;12.20;99.90;;;;;;5040729;28;20045;-68
2022/10/01 06:00:40;;;;;;;5.57;2.95;;;12.30;99.90;;;;;;5052894;28;20572;-68
2022/10/01 06:03:06;;;;;;;5.50;2.80;;;12.30;99.90;;;;;;5052719;28;20112;-69
2022/10/01 06:05:34;;;;;;;5.78;2.85;;;12.30;99.90;;;;;;5052577;28;20037;-68
2022/10/01 06:08:00;;;;;;;5.70;2.80;;;12.30;99.90;;;;;;5051047;28;20037;-68
2022/10/01 06:10:29;;;;;;;5.60;2.92;;;12.30;99.90;;;;;;5024255;28;20037;-68
2022/10/01 06:13:00;;;;;;;5.03;2.83;;;12.30;99.90;;;;;;5051389;28;20041;-69
2022/10/01 06:15:27;;;;;;;5.30;2.80;;;12.40;99.90;;;;;;5049986;28;20045;-68
2022/10/01 06:17:53;;;;;;;5.43;3.15;;;12.40;99.90;;;;;;5052415;28;20041;-68
2022/10/01 06:20:18;;;;;;;5.25;3.05;;;12.40;99.90;;;;;;5044911;28;20044;-69
2022/10/01 06:22:51;;;;;;;5.38;3.00;;;12.50;99.90;;;;;;5036912;28;20064;-68
2022/10/01 06:25:16;;;;;;;5.20;3.17;;;12.50;99.90;;;;;;5067279;28;20119;-68
2022/10/01 11:58:56;;;;;;;10.15;2.00;;;14.00;99.90;;;;;;5085187;27;20416;-71
2022/10/01 12:01:24;;;;;;;8.90;2.03;;;14.50;99.90;;;;;;5067124;28;20041;-70
2022/10/01 12:04:03;;;;;;;8.63;1.88;;;14.50;99.90;;;;;;5097785;28;20039;-70
2022/10/01 12:06:51;;;;;;;9.40;1.73;;;14.60;99.90;;;;;;5067425;28;20531;-70
2022/10/01 12:09:43;;;;;;;9.05;2.30;;;14.70;99.90;;;;;;5067991;28;20481;-69
2022/10/01 12:12:21;;;;;;;7.28;2.00;;;14.70;99.90;;;;;;5098765;28;20111;-71
2022/10/01 12:15:04;;;;;;;9.38;2.10;;;14.70;99.90;;;;;;5068049;28;20086;-71
2022/10/01 12:17:52;;;;;;;12.48;2.30;;;14.70;99.90;;;;;;5067777;28;20519;-71
2022/10/01 12:20:33;;;;;;;16.05;2.70;;;14.60;99.90;;;;;;5067174;28;20037;-71
2022/10/01 12:23:01;;;;;;;8.52;1.52;;;14.70;99.90;;;;;;5051178;28;20076;-71
2022/10/01 12:25:48;;;;;;;12.60;2.55;;;14.70;99.90;;;;;;5083572;28;20055;-71
2022/10/01 12:28:22;;;;;;;9.88;1.85;;;14.70;99.90;;;;;;5065763;28;20123;-71
2022/10/01 12:30:57;;;;;;;13.68;2.20;;;14.60;99.90;;;;;;5084383;28;20083;-71
2022/10/01 12:33:36;;;;;;;12.65;2.50;;;14.50;99.90;;;;;;5066400;28;20090;-70
2022/10/01 12:36:27;;;;;;;12.88;2.30;;;14.50;99.90;;;;;;5064325;28;20029;-70
2022/10/01 12:39:27;;;;;;;7.85;2.13;;;14.50;99.90;;;;;;5081691;28;20136;-70
2022/10/01 12:41:56;;;;;;;11.13;2.40;;;14.50;99.90;;;;;;5097798;28;20041;-70
2022/10/01 12:44:25;;;;;;;10.50;1.80;;;14.60;99.90;;;;;;5081867;28;20029;-70
2022/10/01 12:47:22;;;;;;;12.35;2.22;;;14.60;99.90;;;;;;5067433;28;20133;-70
2022/10/01 12:50:10;;;;;;;10.30;1.80;;;14.70;99.90;;;;;;5066325;28;20085;-70
2022/10/01 12:53:07;;;;;;;12.57;2.50;;;14.90;99.90;;;;;;5083670;28;20037;-70
2022/10/01 12:55:38;;;;;;;11.63;2.22;;;14.90;99.90;;;;;;5064358;28;20099;-70
2022/10/01 12:58:11;;;;;;;9.95;2.20;;;15.10;99.90;;;;;;5080232;28;20049;-70
2022/10/01 13:00:58;;;;;;;8.52;1.40;;;15.20;99.90;;;;;;5053384;28;20048;-70
2022/10/01 13:03:44;;;;;;;9.82;1.45;;;15.20;99.90;;;;;;5052743;28;20040;-70
2022/10/01 13:06:35;;;;;;;7.55;1.40;;;15.10;99.90;;;;;;5051106;28;20546;-70
2022/10/01 13:09:36;;;;;;;9.10;1.42;;;15.10;99.90;;;;;;5052933;28;20405;-70
2022/10/01 13:12:20;;;;;;;10.63;1.73;;;15.10;99.90;;;;;;5039458;28;20040;-70
2022/10/01 13:14:46;;;;;;;7.28;2.20;;;15.10;99.90;;;;;;5070017;28;20114;-69
2022/10/01 13:17:36;;;;;;;6.43;1.55;;;15.20;99.90;;;;;;5052628;28;20044;-69
2022/10/01 13:20:24;;;;;;;7.95;1.50;;;15.30;99.90;;;;;;5052873;28;20056;-70
2022/10/01 13:23:17;;;;;;;11.40;1.63;;;15.30;99.90;;;;;;5052384;28;20041;-70
2022/10/01 13:26:14;;;;;;;10.20;1.65;;;15.20;99.90;;;;;;5069301;28;20509;-70
2022/10/01 13:29:07;;;;;;;6.97;1.30;;;15.10;99.90;;;;;;5083331;28;20120;-70
2022/10/01 13:31:55;;;;;;;5.43;1.00;;;14.80;99.90;;;;;;5020961;28;20406;-70
2022/10/01 13:34:44;;;;;;;6.55;1.25;;;14.60;99.90;;;;;;5036289;28;20036;-70
2022/10/01 13:37:29;;;;;;;5.70;1.30;;;14.60;99.90;;;;;;5050627;28;20037;-70
2022/10/01 13:39:59;;;;;;;8.43;1.45;;;14.50;99.90;;;;;;5063474;28;20052;-70
2022/10/01 13:42:32;;;;;;;8.52;1.40;;;14.50;99.90;;;;;;5068501;28;20522;-70
2022/10/01 13:45:03;;;;;;;7.32;1.65;;;14.50;99.90;;;;;;5047775;28;20041;-70
2022/10/01 13:47:32;;;;;;;7.32;2.13;;;14.60;99.90;;;;;;5058758;28;20045;-70
2022/10/01 13:50:24;;;;;;;10.15;1.60;;;14.70;99.90;;;;;;5083751;28;20478;-70
2022/10/01 13:52:50;;;;;;;8.90;1.83;;;14.70;99.90;;;;;;5068318;28;20559;-70
2022/10/01 13:55:29;;;;;;;7.82;1.45;;;14.70;99.90;;;;;;5034414;28;20087;-70
2022/10/01 13:58:03;;;;;;;11.60;1.83;;;14.80;99.90;;;;;;5049304;28;20145;-70
2022/10/01 14:00:28;;;;;;;9.98;1.98;;;14.80;99.90;;;;;;5051942;28;20094;-70
2022/10/01 14:03:22;;;;;;;6.97;1.70;;;14.80;99.90;;;;;;5068421;28;20489;-70
2022/10/01 14:05:54;;;;;;;8.82;1.60;;;14.80;99.90;;;;;;5046241;28;20600;-70
2022/10/01 14:08:52;;;;;;;7.57;3.10;;;14.90;99.90;;;;;;5084617;28;20048;-70
2022/10/01 14:17:11;;;;;;;11.93;1.70;;;14.90;99.90;;;;;;5078812;28;20148;-70
2022/10/01 14:19:44;;;;;;;9.52;1.88;;;14.80;99.90;;;;;;5048564;28;20075;-70
2022/10/01 14:22:37;;;;;;;10.77;1.98;;;14.80;99.90;;;;;;5046818;28;20398;-70
2022/10/01 14:25:24;;;;;;;10.05;2.08;;;14.80;99.90;;;;;;5081261;28;20056;-70
2022/10/01 14:28:22;;;;;;;14.73;1.90;;;14.90;99.90;;;;;;5068272;28;20513;-70
2022/10/01 14:30:56;;;;;;;11.98;1.67;;;14.80;99.90;;;;;;5067489;28;20497;-70
2022/10/01 14:33:57;;;;;;;9.95;1.90;;;14.80;99.90;;;;;;5066190;28;20402;-70
2022/10/01 14:36:33;;;;;;;12.57;2.13;;;14.90;99.90;;;;;;5080445;28;20098;-70
2022/10/01 14:39:20;;;;;;;9.43;1.80;;;15.00;99.90;;;;;;5032282;28;20032;-70
2022/10/01 14:41:48;;;;;;;11.82;1.98;;;15.10;99.90;;;;;;5062912;28;20053;-70
2022/10/01 14:44:28;;;;;;;10.30;2.03;;;15.20;99.90;;;;;;5065902;28;20090;-70
2022/10/01 14:46:56;;;;;;;12.15;1.92;;;15.20;99.90;;;;;;5059332;28;20045;-70
2022/10/01 14:49:30;;;;;;;10.88;2.08;;;15.30;99.90;;;;;;5032119;28;20044;-70
2022/10/01 14:52:00;;;;;;;10.70;2.50;;;15.40;99.90;;;;;;5049607;28;20041;-70
2022/10/01 14:54:28;;;;;;;10.60;1.70;;;15.40;99.90;;;;;;5065985;28;20235;-70
2022/10/01 14:56:54;;;;;;;11.30;2.20;;;15.30;99.90;;;;;;5049417;28;20045;-69
2022/10/01 14:59:30;;;;;;;13.57;2.28;;;15.20;99.90;;;;;;5050323;28;20407;-70
2022/10/01 15:01:58;;;;;;;13.18;2.00;;;15.00;99.90;;;;;;5025459;28;20044;-69
2022/10/01 15:04:24;;;;;;;12.32;2.42;;;14.90;99.90;;;;;;5048182;28;20033;-69
2022/10/01 15:06:50;;;;;;;9.02;2.13;;;14.90;99.90;;;;;;5065726;28;20049;-70
2022/10/01 15:09:17;;;;;;;11.38;2.47;;;14.90;99.90;;;;;;5061732;28;20037;-70
2022/10/01 15:11:46;;;;;;;11.20;1.92;;;14.90;99.90;;;;;;5051109;28;20147;-70
2022/10/01 15:14:23;;;;;;;12.95;2.58;;;14.90;99.90;;;;;;5045757;28;20041;-69
2022/10/01 15:16:50;;;;;;;10.48;1.80;;;14.90;99.90;;;;;;5076858;28;20048;-69
2022/10/01 15:19:19;;;;;;;12.75;1.90;;;15.00;99.90;;;;;;5053444;28;20072;-70
2022/10/01 15:21:55;;;;;;;13.40;2.15;;;15.00;99.90;;;;;;5079969;28;20494;-70
2022/10/01 15:24:41;;;;;;;14.45;1.88;;;15.00;99.90;;;;;;5079535;28;20455;-70
2022/10/01 15:27:09;;;;;;;15.10;2.30;;;14.90;99.90;;;;;;5028099;28;20049;-70
2022/10/01 15:29:37;;;;;;;11.77;2.15;;;14.90;99.90;;;;;;5050188;28;20563;-70
2022/10/01 15:32:04;;;;;;;12.45;2.25;;;14.80;99.90;;;;;;5067323;28;20473;-70
2022/10/01 15:34:31;;;;;;;16.23;2.40;;;14.80;99.90;;;;;;5078331;28;20049;-70
2022/10/01 15:36:58;;;;;;;14.00;2.40;;;14.80;99.90;;;;;;5083587;28;20041;-70
2022/10/01 15:39:34;;;;;;;10.98;1.83;;;14.80;99.90;;;;;;5043614;28;20053;-70
2022/10/01 15:42:07;;;;;;;13.75;2.50;;;14.80;99.90;;;;;;5042898;28;20525;-70
2022/10/01 15:44:44;;;;;;;13.65;2.20;;;14.70;99.90;;;;;;5030580;28;20045;-70
2022/10/01 15:47:22;;;;;;;11.35;2.35;;;14.60;99.90;;;;;;5082581;28;20049;-70
2022/10/01 15:50:02;;;;;;;13.18;3.20;;;14.60;99.90;;;;;;5078229;28;20406;-70
2022/10/01 15:52:49;;;;;;;14.38;2.35;;;14.60;99.90;;;;;;5045364;28;20032;-70
2022/10/01 15:55:28;;;;;;;16.55;3.00;;;14.50;99.90;;;;;;5037488;28;20038;-70
2022/10/01 15:58:02;;;;;;;13.18;2.42;;;14.50;99.90;;;;;;5053082;28;20120;-70
2022/10/01 16:00:30;;;;;;;12.50;2.33;;;14.60;99.90;;;;;;5050775;28;20401;-70
2022/10/01 16:02:57;;;;;;;16.92;2.83;;;14.60;99.90;;;;;;5067042;28;20040;-70
2022/10/01 16:05:27;;;;;;;14.77;2.47;;;14.60;99.90;;;;;;5065305;28;20037;-70
2022/10/01 16:07:57;;;;;;;14.48;2.70;;;14.50;99.90;;;;;;5061969;28;20449;-70
2022/10/01 16:10:35;;;;;;;13.18;2.33;;;14.50;99.90;;;;;;5083716;28;20033;-70
2022/10/01 16:13:47;;;;;;;11.10;2.10;;;14.60;99.90;;;;;;5061023;28;20033;-70
2022/10/01 16:16:13;;;;;;;14.57;2.30;;;14.50;99.90;;;;;;5045544;28;20099;-70
2022/10/01 16:18:39;;;;;;;14.50;2.60;;;14.50;99.90;;;;;;5062147;28;20041;-70
2022/10/01 16:21:10;;;;;;;14.30;3.15;;;14.50;99.90;;;;;;5027601;28;20112;-70
2022/10/01 16:23:39;;;;;;;13.05;2.45;;;14.40;99.90;;;;;;5077462;28;20502;-70
2022/10/01 16:26:26;;;;;;;14.93;3.35;;;14.40;99.90;;;;;;5032577;28;20733;-70
2022/10/01 16:29:22;;;;;;;14.73;2.40;;;14.40;99.90;;;;;;5048722;28;20049;-70
2022/10/01 16:31:49;;;;;;;13.38;2.20;;;14.40;99.90;;;;;;5050042;28;20056;-70
2022/10/01 16:34:17;;;;;;;16.38;3.25;;;14.30;99.90;;;;;;5068583;28;20437;-70
2022/10/01 16:36:43;;;;;;;13.90;2.85;;;14.20;99.90;;;;;;5052864;28;20120;-70
2022/10/01 16:39:12;;;;;;;11.77;2.10;;;14.20;99.90;;;;;;5061865;28;20052;-70
2022/10/01 16:41:38;;;;;;;15.95;3.10;;;14.10;99.90;;;;;;5081084;28;20085;-70
2022/10/01 16:44:05;;;;;;;10.68;2.28;;;14.10;99.90;;;;;;5069282;28;20087;-70
2022/10/01 16:46:31;;;;;;;12.88;2.08;;;14.10;99.90;;;;;;5051861;28;20077;-70
2022/10/01 16:48:57;;;;;;;13.63;2.70;;;14.00;99.90;;;;;;5069401;28;20193;-70
2022/10/01 16:51:22;;;;;;;11.77;2.10;;;14.00;99.90;;;;;;5085046;28;20546;-70
2022/10/01 16:53:53;;;;;;;16.17;2.75;;;14.00;99.90;;;;;;5062882;28;20048;-70
2022/10/01 16:56:19;;;;;;;14.50;2.75;;;14.00;99.90;;;;;;5053520;28;20497;-70
2022/10/01 16:58:44;;;;;;;12.65;2.30;;;13.90;99.90;;;;;;5069424;28;20045;-70
2022/10/01 17:01:14;;;;;;;11.73;2.33;;;13.90;99.90;;;;;;5052028;28;20060;-70
2022/10/01 17:03:40;;;;;;;19.67;2.70;;;13.90;99.90;;;;;;5077546;28;20044;-70
2022/10/01 17:06:06;;;;;;;13.77;2.80;;;13.80;99.90;;;;;;5050630;28;20040;-70
2022/10/01 17:08:32;;;;;;;16.42;2.65;;;13.80;99.90;;;;;;5083360;28;20099;-69
2022/10/01 17:11:00;;;;;;;15.63;2.97;;;13.80;99.90;;;;;;5053665;28;20417;-70
2022/10/01 17:13:32;;;;;;;13.35;2.20;;;13.70;99.90;;;;;;5066233;28;20079;-70
2022/10/01 17:15:58;;;;;;;14.32;3.28;;;13.70;99.90;;;;;;5059310;28;20040;-70
2022/10/01 17:18:24;;;;;;;17.15;2.78;;;13.70;99.90;;;;;;5068616;28;20041;-70
2022/10/01 17:20:49;;;;;;;20.23;2.70;;;13.60;99.90;;;;;;5032674;28;20526;-70
2022/10/01 17:23:17;;;;;;;16.02;2.38;;;13.60;99.90;;;;;;5048721;28;20045;-70
2022/10/01 17:25:44;;;;;;;18.67;3.53;;;13.50;99.90;;;;;;5051407;28;20049;-70
2022/10/01 17:28:12;;;;;;;12.52;1.95;;;13.50;99.90;;;;;;5083342;28;20123;-70
2022/10/01 17:30:43;;;;;;;15.10;2.85;;;13.50;99.90;;;;;;5045300;28;20041;-70
2022/10/01 17:33:10;;;;;;;14.93;2.30;;;13.50;99.90;;;;;;5032096;28;20431;-70
2022/10/01 17:35:44;;;;;;;17.75;2.72;;;13.50;99.90;;;;;;5061988;28;20581;-70
2022/10/01 17:38:11;;;;;;;11.57;2.10;;;13.40;99.90;;;;;;5081933;28;20036;-70
2022/10/01 17:40:40;;;;;;;15.82;3.55;;;13.40;99.90;;;;;;5045399;28;20131;-70
2022/10/01 17:43:06;;;;;;;13.43;2.60;;;13.40;99.90;;;;;;5062293;28;20082;-70
2022/10/01 17:45:32;;;;;;;14.68;2.40;;;13.40;99.90;;;;;;5053249;28;20071;-70
2022/10/01 17:47:58;;;;;;;12.75;1.98;;;13.30;99.90;;;;;;5044731;28;20040;-70
2022/10/01 17:50:24;;;;;;;13.57;1.92;;;13.30;99.90;;;;;;5059197;28;20032;-70
2022/10/01 17:52:50;;;;;;;11.80;1.88;;;13.30;99.90;;;;;;5083323;28;20393;-70
2022/10/01 17:55:18;;;;;;;9.85;1.88;;;13.30;99.90;;;;;;5034991;28;20116;-70
2022/10/01 17:57:44;;;;;;;12.63;2.47;;;13.30;99.90;;;;;;5085913;28;20441;-70
2022/10/01 18:00:10;;;;;;;8.38;1.73;;;13.20;99.90;;;;;;5052357;28;20045;-70
2022/10/01 18:02:36;;;;;;;9.98;1.80;;;13.30;99.90;;;;;;5051370;28;20041;-70
2022/10/01 18:05:03;;;;;;;9.48;2.00;;;13.20;99.90;;;;;;5051862;28;20410;-70
2022/10/01 18:07:28;;;;;;;10.27;1.88;;;13.20;99.90;;;;;;5034879;28;20044;-70
2022/10/01 18:09:54;;;;;;;9.10;1.75;;;13.10;99.90;;;;;;5052418;28;20036;-70
2022/10/01 18:12:20;;;;;;;8.50;1.80;;;13.10;99.90;;;;;;5073399;28;20045;-70
2022/10/01 18:14:45;;;;;;;10.13;1.70;;;13.10;99.90;;;;;;5050786;28;20049;-70
2022/10/01 18:17:11;;;;;;;11.70;1.73;;;13.00;99.90;;;;;;5068145;28;20117;-70
2022/10/01 18:19:36;;;;;;;10.20;2.05;;;13.10;99.90;;;;;;5054428;28;20509;-70
2022/10/01 18:22:02;;;;;;;11.10;2.13;;;13.00;99.90;;;;;;5068515;28;20051;-70
2022/10/01 18:24:28;;;;;;;9.25;1.63;;;12.90;99.90;;;;;;5064824;28;20045;-70
2022/10/01 18:26:54;;;;;;;8.95;2.05;;;12.90;99.90;;;;;;5085338;28;20045;-69
2022/10/01 18:29:23;;;;;;;7.28;1.75;;;12.90;99.90;;;;;;5065096;28;20075;-70
2022/10/01 18:31:57;;;;;;;14.13;2.20;;;12.90;99.90;;;;;;5065248;28;20044;-69
2022/10/01 18:34:38;;;;;;;12.75;1.77;;;12.80;99.90;;;;;;5081106;28;20498;-69
2022/10/01 18:37:32;;;;;;;9.60;1.50;;;12.80;99.90;;;;;;5025970;28;20047;-70
2022/10/01 18:40:07;;;;;;;9.80;1.90;;;12.80;99.90;;;;;;5048921;28;20060;-70
2022/10/01 18:42:48;;;;;;;10.43;1.90;;;12.80;99.90;;;;;;5063778;28;20052;-70
2022/10/01 18:45:50;;;;;;;8.35;1.60;;;12.80;99.90;;;;;;5063819;28;20064;-70